Terminal Aerodrome Forecast
Issued by NWS Austin/San Antonio, TX

Home | Current Version | Previous Version | Text Only | Print | Product List | Glossary On
Versions: 1 2 3 4 5 6 7 8 9 10 11 12 13 14 15 16 17 18 19 20 21 22
836
FTUS44 KEWX 291128
TAFSAT
TAF
KSAT 291128Z 2912/3018 01007KT P6SM SCT015 BKN250
     FM291230 01007KT P6SM VCSH BKN015
     FM291600 02008KT P6SM VCSH BKN025
     FM291800 03008KT P6SM VCSH BKN035
     FM300300 04006KT P6SM SCT050 BKN120
     FM301000 05003KT 6SM BR BKN007
     FM301600 05003KT P6SM BKN025=

USA.gov is the U.S. government's official web portal to all federal, state and local government web resources and services.